createdAt,value
2022-12-12T00:01:51.418Z,138.93671
2022-12-12T00:06:53.116Z,138.32177
2022-12-12T00:11:54.934Z,133.53846
2022-12-12T00:16:56.617Z,135.90031
2022-12-12T00:21:58.274Z,134.12346
2022-12-12T00:26:59.787Z,131.80488
2022-12-12T00:32:01.198Z,129.54217
2022-12-12T00:37:02.659Z,128.43114
2022-12-12T00:42:04.126Z,127.8806
2022-12-12T00:47:05.722Z,126.78932
2022-12-12T00:52:07.574Z,124.11696
2022-12-12T00:57:09.028Z,121.01149
2022-12-12T01:02:10.533Z,121.01149
2022-12-12T01:07:12.094Z,119
2022-12-12T01:12:13.582Z,119.49858
2022-12-12T01:17:15.082Z,119
2022-12-12T01:22:16.736Z,119
2022-12-12T01:27:18.254Z,119
2022-12-12T01:32:19.740Z,119
2022-12-12T01:37:21.508Z,118.0113
2022-12-12T01:42:23.027Z,117.03371
2022-12-12T01:47:24.484Z,115.11111
2022-12-12T01:52:26.213Z,116.54902
2022-12-12T01:57:27.800Z,116.54902
2022-12-12T02:02:29.407Z,113.69697
2022-12-12T02:07:30.950Z,110.48649
2022-12-12T02:12:32.416Z,110.03774
2022-12-12T02:17:34.125Z,110.03774
2022-12-12T02:22:35.863Z,107.82979
2022-12-12T02:27:37.326Z,106.53298
2022-12-12T02:32:38.792Z,105.25654
2022-12-12T02:37:40.409Z,102.76289
2022-12-12T02:42:41.913Z,102.35476
2022-12-12T02:47:43.606Z,103.58549
2022-12-12T02:52:45.643Z,102.76289
2022-12-12T02:57:47.112Z,103.58549
2022-12-12T03:02:48.960Z,108.26667
2022-12-12T03:07:50.696Z,109.14745
2022-12-12T03:12:52.206Z,106.96296
2022-12-12T03:17:53.765Z,108.70588
2022-12-12T03:22:55.850Z,106.96296
2022-12-12T03:27:57.572Z,106.10526
2022-12-12T03:32:59.020Z,105.25654
2022-12-12T03:38:00.644Z,104.41667
2022-12-12T03:43:02.091Z,106.53298
2022-12-12T03:48:03.596Z,107.39523
2022-12-12T03:53:05.385Z,106.10526
2022-12-12T03:58:06.844Z,105.67979
2022-12-12T04:03:08.279Z,106.53298
2022-12-12T04:08:09.914Z,106.10526
2022-12-12T04:13:11.633Z,105.25654
2022-12-12T04:18:13.045Z,103.17313
2022-12-12T04:23:15.102Z,104.83551
2022-12-12T04:28:16.863Z,106.10526
2022-12-12T04:33:18.331Z,109.5914
2022-12-12T04:38:19.824Z,105.25654
2022-12-12T04:43:21.376Z,107.39523
2022-12-12T04:48:23.208Z,108.70588
2022-12-12T04:53:25.234Z,107.82979
2022-12-12T04:58:26.777Z,106.10526
2022-12-12T05:03:28.608Z,101.14286
2022-12-12T05:08:30.582Z,105.67979
2022-12-12T05:13:32.294Z,103.17313
2022-12-12T05:18:34.122Z,105.67979
2022-12-12T05:23:36.441Z,100.34518
2022-12-12T05:28:38.641Z,107.82979
2022-12-12T05:33:40.459Z,103.58549
2022-12-12T05:38:42.340Z,101.54476
2022-12-12T05:43:44.155Z,102.76289
2022-12-12T05:48:45.931Z,103.58549
2022-12-12T05:53:47.957Z,103.58549
2022-12-12T05:58:49.996Z,104
2022-12-12T06:03:51.749Z,89.28302
2022-12-12T06:08:55.773Z,100.34518
2022-12-12T06:13:57.602Z,106.10526
2022-12-12T06:18:59.247Z,107.39523
2022-12-12T06:24:00.970Z,107.39523
2022-12-12T06:29:02.747Z,106.53298
2022-12-12T06:34:04.532Z,109.5914
2022-12-12T06:39:06.402Z,109.5914
2022-12-12T06:44:08.286Z,109.14745
2022-12-12T06:49:10.112Z,110.48649
2022-12-12T06:59:22.533Z,104
2022-12-12T07:04:24.065Z,114.63712
2022-12-12T07:09:25.691Z,107.39523
2022-12-12T07:14:27.454Z,112.30601
2022-12-12T07:19:29.319Z,113.69697
2022-12-12T07:24:31.233Z,114.63712
2022-12-12T07:29:33.119Z,117.52113
2022-12-12T07:34:34.838Z,114.63712
2022-12-12T07:39:36.761Z,114.63712
2022-12-12T07:44:38.703Z,110.48649
2022-12-12T07:49:40.560Z,107.82979
2022-12-12T07:54:42.305Z,109.14745
2022-12-12T07:59:44.330Z,113.69697
2022-12-12T08:04:46.102Z,115.11111
2022-12-12T08:09:47.641Z,110.03774
2022-12-12T08:14:49.480Z,116.54902
2022-12-12T08:19:51.740Z,114.63712
2022-12-12T08:24:53.611Z,118.50425
2022-12-12T08:29:55.695Z,109.5914
2022-12-12T08:34:57.457Z,107.82979
2022-12-12T08:39:59.362Z,120.5043
2022-12-12T08:45:01.232Z,120
2022-12-12T08:50:03.064Z,116.06704
2022-12-12T08:55:04.865Z,131.80488
2022-12-12T09:00:06.911Z,124.64516
2022-12-12T09:05:08.919Z,128.98498
2022-12-12T09:10:10.796Z,129.54217
2022-12-12T09:15:12.973Z,132.3792
2022-12-12T09:20:15.032Z,138.93671
2022-12-12T09:25:16.872Z,141.4359
2022-12-12T09:30:18.776Z,126.78932
2022-12-12T09:35:20.497Z,135.30435
2022-12-12T09:40:22.070Z,134.12346
2022-12-12T09:45:23.631Z,131.23404
2022-12-12T09:50:25.119Z,128.43114
2022-12-12T09:55:26.609Z,130.10272
2022-12-12T10:00:28.403Z,137.10345
2022-12-12T10:05:29.859Z,129.54217
2022-12-12T10:10:31.453Z,135.30435
2022-12-12T10:15:33.136Z,135.90031
2022-12-12T10:20:34.736Z,128.43114
2022-12-12T10:25:36.302Z,137.10345
2022-12-12T10:30:38.005Z,134.71207
2022-12-12T10:35:39.544Z,127.33333
2022-12-12T10:40:41.372Z,130.10272
2022-12-12T10:45:43.447Z,137.71069
2022-12-12T10:50:45.268Z,135.90031
2022-12-12T10:55:47.240Z,149.33333
2022-12-12T11:00:49.366Z,150.02007
2022-12-12T11:05:50.923Z,141.4359
2022-12-12T11:10:52.450Z,139.55556
2022-12-12T11:15:54.166Z,150.71141
2022-12-12T11:20:55.697Z,151.40741
2022-12-12T11:25:57.243Z,149.33333
2022-12-12T11:30:59.121Z,150.02007
2022-12-12T11:36:00.557Z,155.68385
2022-12-12T11:41:02.156Z,156.41379
2022-12-12T11:46:03.877Z,158.63415
2022-12-12T11:51:05.354Z,158.63415
2022-12-12T11:56:06.894Z,169.64103
2022-12-12T12:01:08.648Z,178.22053
2022-12-12T12:06:10.139Z,178.22053
2022-12-12T12:11:11.646Z,170.47059
2022-12-12T12:16:13.272Z,179.1145
2022-12-12T12:21:14.740Z,198.54545
2022-12-12T12:26:16.422Z,180.01533
2022-12-12T12:31:18.110Z,168
2022-12-12T12:36:21.472Z,172.99628
2022-12-12T12:41:23.162Z,185.56863
2022-12-12T12:46:24.711Z,165.58273
2022-12-12T12:51:26.211Z,189.41833
2022-12-12T12:56:27.773Z,182.75969
2022-12-12T13:01:29.579Z,184.625
2022-12-12T13:06:31.086Z,191.38956
2022-12-12T13:11:32.571Z,203.91561
2022-12-12T13:16:34.173Z,215.36564
2022-12-12T13:21:35.661Z,222.73303
2022-12-12T13:26:37.223Z,230.51163
2022-12-12T13:31:38.947Z,210.66667
2022-12-12T13:36:40.483Z,201.74059
2022-12-12T13:41:42.015Z,208.37768
2022-12-12T13:46:45.588Z,215.36564
2022-12-12T13:51:47.512Z,222.73303
2022-12-12T13:56:49.246Z,231.85047
2022-12-12T14:01:51.183Z,231.85047
2022-12-12T14:06:54.953Z,235.94313
2022-12-12T14:11:56.726Z,230.51163
2022-12-12T14:16:58.556Z,235.94313
2022-12-12T14:22:00.402Z,241.58454
2022-12-12T14:27:01.904Z,197.49794
2022-12-12T14:32:04.111Z,240.15385
2022-12-12T14:37:05.900Z,196.45902
2022-12-12T14:42:07.774Z,227.87097
2022-12-12T14:47:09.725Z,227.87097
2022-12-12T14:52:11.184Z,209.51724
2022-12-12T14:57:13.009Z,208.37768
2022-12-12T15:02:15.143Z,216.56637
2022-12-12T15:07:17.058Z,237.33333
2022-12-12T15:12:18.966Z,231.85047
2022-12-12T15:17:20.687Z,210.66667
2022-12-12T15:22:22.299Z,214.17544
2022-12-12T15:27:23.743Z,226.56881
2022-12-12T15:32:25.611Z,195.42857
2022-12-12T15:37:27.233Z,190.4
2022-12-12T15:42:28.876Z,199.60166
2022-12-12T15:47:30.379Z,187.47826
2022-12-12T15:52:31.996Z,172.99628
2022-12-12T15:57:33.562Z,188.44444
2022-12-12T16:02:35.387Z,189.41833
2022-12-12T16:07:36.871Z,190.4
2022-12-12T16:12:38.499Z,189.41833
2022-12-12T16:17:40.341Z,178.22053
2022-12-12T16:22:42.143Z,172.99628
2022-12-12T16:27:43.987Z,168.81752
2022-12-12T16:32:46.246Z,175.57895
2022-12-12T16:37:48.027Z,167.18841
2022-12-12T16:42:50.009Z,166.38267
2022-12-12T16:47:51.787Z,165.58273
2022-12-12T16:52:53.626Z,160.90141
2022-12-12T16:57:55.554Z,162.43972
2022-12-12T17:03:02.295Z,156.41379
2022-12-12T17:08:04.065Z,152.81356
2022-12-12T17:13:05.924Z,158.63415
2022-12-12T17:18:07.704Z,159.38462
2022-12-12T17:23:42.221Z,152.81356
2022-12-12T17:28:43.756Z,152.10811
2022-12-12T17:33:50.277Z,150.02007
2022-12-12T17:38:52.959Z,153.52381
2022-12-12T17:43:55.699Z,154.9589
2022-12-12T17:48:57.791Z,140.80511
2022-12-12T17:53:59.580Z,144.65147
2022-12-12T17:59:01.270Z,144.65147
2022-12-12T18:04:03.256Z,137.71069
2022-12-12T18:09:05.185Z,134.71207
2022-12-12T18:14:06.678Z,138.32177
2022-12-12T18:19:08.604Z,142.70968
2022-12-12T18:24:10.259Z,137.10345
2022-12-12T18:29:11.965Z,128.43114
2022-12-12T18:34:13.933Z,139.55556
2022-12-12T18:39:15.758Z,141.4359
2022-12-12T18:44:17.600Z,135.90031
2022-12-12T18:49:19.611Z,132.3792
2022-12-12T18:54:21.394Z,132.3792
2022-12-12T18:59:22.914Z,137.71069
2022-12-12T19:04:24.632Z,132.95706
2022-12-12T19:09:26.273Z,138.93671
2022-12-12T19:14:40.488Z,133.53846
2022-12-12T19:19:54.637Z,125.17647
2022-12-12T19:24:56.414Z,120
2022-12-12T19:29:58.143Z,113.23077
2022-12-12T19:35:00.069Z,103.58549
2022-12-12T19:40:01.762Z,99.55556
2022-12-12T19:45:03.494Z,98.77387
2022-12-12T19:50:05.458Z,101.14286
2022-12-12T19:55:06.951Z,107.39523
2022-12-12T20:00:08.751Z,106.53298
2022-12-12T20:05:10.825Z,110.93767
2022-12-12T20:10:13.079Z,120.5043
2022-12-12T20:15:15.258Z,119
2022-12-12T20:20:17.236Z,119
2022-12-12T20:25:19.036Z,123.59184
2022-12-12T20:30:20.574Z,120
2022-12-12T20:35:22.373Z,123.59184
2022-12-12T20:40:23.937Z,142.70968
2022-12-12T20:45:25.417Z,140.17834
2022-12-12T20:50:26.902Z,133.53846
2022-12-12T20:55:28.460Z,134.12346
2022-12-12T21:00:30.003Z,131.23404
2022-12-12T21:05:31.622Z,128.43114
2022-12-12T21:10:33.264Z,127.8806
2022-12-12T21:15:34.826Z,125.17647
2022-12-12T21:20:36.467Z,120
2022-12-12T21:25:37.943Z,114.16575
2022-12-12T21:30:39.413Z,110.93767
2022-12-12T21:35:41.785Z,107.82979
2022-12-12T21:40:43.275Z,104.83551
2022-12-12T21:45:44.821Z,103.58549
2022-12-12T21:50:46.247Z,101.54476
2022-12-12T21:55:47.765Z,98
2022-12-12T22:00:49.336Z,95.72414
2022-12-12T22:05:51.114Z,94.98039
2022-12-12T22:10:54.318Z,94.98039
2022-12-12T22:15:56.455Z,95.72414
2022-12-12T22:20:58.001Z,98
2022-12-12T22:25:59.555Z,98.77387
2022-12-12T22:31:01.103Z,98.38596
2022-12-12T22:36:02.997Z,99.16373
2022-12-12T22:41:04.455Z,100.743
2022-12-12T22:46:06.108Z,100.34518
2022-12-12T22:51:07.922Z,100.34518
2022-12-12T22:56:09.399Z,101.14286
2022-12-12T23:01:10.887Z,101.94872
2022-12-12T23:06:13.197Z,99.94937
2022-12-12T23:11:14.605Z,103.17313
2022-12-12T23:16:16.647Z,106.10526
2022-12-12T23:21:18.737Z,106.96296
2022-12-12T23:26:20.485Z,114.16575
2022-12-12T23:31:22.593Z,118.50425
2022-12-12T23:36:24.520Z,117.03371
2022-12-12T23:41:25.943Z,115.58774
2022-12-12T23:46:27.532Z,117.03371
2022-12-12T23:51:29.069Z,117.03371
2022-12-12T23:56:30.588Z,119
